Time;durP1;ratioP1;P1;durP2;ratioP2;P2;SDS_P1;SDS_P2;PMS_P1;PMS_P2;Temp;Humidity;BMP_temperature;BMP_pressure;BME280_temperature;BME280_humidity;BME280_pressure;Samples;Min_cycle;Max_cycle;Signal;HPM_P1;HPM_P2
2023/10/08 00:00:53;;;;;;;0.00;0.00;;;;;;;;;;4974426;28;20026;-56
2023/10/08 00:03:29;;;;;;;0.00;0.00;;;;;;;;;;4973692;28;20026;-56
2023/10/08 00:05:55;;;;;;;0.00;0.00;;;;;;;;;;4974908;28;20033;-58
2023/10/08 00:08:21;;;;;;;0.00;0.00;;;;;;;;;;4973106;28;20042;-57
2023/10/08 00:10:47;;;;;;;0.00;0.00;;;;;;;;;;4974651;28;20153;-56
2023/10/08 00:13:17;;;;;;;0.00;0.00;;;;;;;;;;4973102;28;20026;-57
2023/10/08 00:15:53;;;;;;;0.00;0.00;;;;;;;;;;4974406;28;20054;-56
2023/10/08 00:18:22;;;;;;;0.00;0.00;;;;;;;;;;4973542;28;20113;-56
2023/10/08 00:20:58;;;;;;;0.00;0.00;;;;;;;;;;4974060;28;20390;-54
2023/10/08 00:23:27;;;;;;;0.00;0.00;;;18.20;99.90;;;;;;4973542;28;20550;-56
2023/10/08 00:25:54;;;;;;;0.00;0.00;;;18.10;99.90;;;;;;4974080;28;20544;-57
2023/10/08 00:28:21;;;;;;;0.00;0.00;;;18.10;99.90;;;;;;4973513;28;20026;-57
2023/10/08 00:30:47;;;;;;;0.00;0.00;;;18.00;99.90;;;;;;4984007;28;20035;-56
2023/10/08 00:33:14;;;;;;;0.00;0.00;;;18.00;99.90;;;;;;4973114;28;20038;-56
2023/10/08 00:35:41;;;;;;;0.00;0.00;;;18.00;99.90;;;;;;4973878;28;20035;-56
2023/10/08 00:38:20;;;;;;;0.00;0.00;;;18.00;99.90;;;;;;4972922;28;20533;-57
2023/10/08 00:40:46;;;;;;;0.00;0.00;;;18.00;99.90;;;;;;4974033;28;20734;-56
2023/10/08 00:43:36;;;;;;;0.00;0.00;;;17.90;99.90;;;;;;4972684;28;20050;-58
2023/10/08 00:48:56;;;;;;;0.00;0.00;;;17.90;99.90;;;;;;4973666;28;20053;-57
2023/10/08 00:54:10;;;;;;;0.00;0.00;;;17.80;99.90;;;;;;4973224;28;20457;-56
2023/10/08 00:59:21;;;;;;;0.00;0.00;;;18.10;99.90;;;;;;4974639;28;20194;-55
2023/10/08 01:01:51;;;;;;;0.00;0.00;;;17.90;99.90;;;;;;4973642;28;20070;-55
2023/10/08 01:04:33;;;;;;;0.00;0.00;;;17.80;99.90;;;;;;4963447;28;20113;-58
2023/10/08 01:07:01;;;;;;;0.00;0.00;;;;;;;;;;4969332;28;20037;-56
2023/10/08 01:09:37;;;;;;;0.00;0.00;;;17.70;99.90;;;;;;4980826;28;20038;-54
2023/10/08 01:12:33;;;;;;;0.00;0.00;;;17.90;99.90;;;;;;4972170;28;20038;-58
2023/10/08 01:18:00;;;;;;;0.00;0.00;;;17.80;99.90;;;;;;4992875;28;20040;-53
2023/10/08 01:23:03;;;;;;;0.00;0.00;;;17.70;99.90;;;;;;4973247;28;20045;-56
2023/10/08 01:25:30;;;;;;;0.00;0.00;;;17.60;99.90;;;;;;4973220;28;20037;-56
2023/10/08 01:28:00;;;;;;;0.00;0.00;;;17.60;99.90;;;;;;4973680;28;20061;-55
2023/10/08 01:30:26;;;;;;;0.00;0.00;;;17.60;99.90;;;;;;4991704;28;20057;-58
2023/10/08 01:32:52;;;;;;;0.00;0.00;;;17.70;99.90;;;;;;4977990;28;20255;-56
2023/10/08 01:35:23;;;;;;;0.00;0.00;;;17.80;99.90;;;;;;4970864;28;20046;-58
2023/10/08 01:37:50;;;;;;;0.00;0.00;;;;;;;;;;4972848;28;20061;-55
2023/10/08 01:40:17;;;;;;;0.00;0.00;;;17.50;99.90;;;;;;4972056;28;20627;-54
2023/10/08 01:42:43;;;;;;;0.00;0.00;;;17.50;99.90;;;;;;4972696;28;20046;-54
2023/10/08 01:45:11;;;;;;;0.00;0.00;;;17.50;99.90;;;;;;4990041;28;20122;-55
2023/10/08 01:47:38;;;;;;;0.00;0.00;;;17.30;99.90;;;;;;4988265;28;20033;-54
2023/10/08 01:50:21;;;;;;;0.00;0.00;;;17.30;99.90;;;;;;4974827;28;20300;-55
2023/10/08 01:52:47;;;;;;;0.00;0.00;;;17.30;99.90;;;;;;4972790;28;20530;-53
2023/10/08 01:55:17;;;;;;;0.00;0.00;;;17.30;99.90;;;;;;4971967;28;20705;-54
2023/10/08 01:57:43;;;;;;;0.00;0.00;;;17.40;99.90;;;;;;4973306;28;20390;-53
2023/10/08 02:00:09;;;;;;;0.00;0.00;;;17.50;99.90;;;;;;4971360;28;20129;-54
2023/10/08 02:02:35;;;;;;;0.00;0.00;;;17.40;99.90;;;;;;4973031;28;20275;-55
2023/10/08 02:05:01;;;;;;;0.00;0.00;;;17.30;99.90;;;;;;4975352;28;20034;-53
2023/10/08 02:07:26;;;;;;;0.00;0.00;;;17.40;99.90;;;;;;4976351;28;20273;-54
2023/10/08 02:09:52;;;;;;;0.00;0.00;;;17.50;99.90;;;;;;4975469;28;20046;-53
2023/10/08 02:12:18;;;;;;;0.00;0.00;;;17.40;99.90;;;;;;4975765;28;20027;-54
2023/10/08 02:14:44;;;;;;;0.00;0.00;;;17.30;99.90;;;;;;4976723;28;20576;-53
2023/10/08 02:17:10;;;;;;;0.00;0.00;;;17.40;99.90;;;;;;4975041;28;20041;-53
2023/10/08 02:19:37;;;;;;;0.00;0.00;;;17.30;99.90;;;;;;4976359;28;20042;-52
2023/10/08 02:22:05;;;;;;;0.00;0.00;;;17.20;99.90;;;;;;4974993;28;20066;-53
2023/10/08 02:24:32;;;;;;;0.00;0.00;;;17.30;99.90;;;;;;4976804;28;20062;-52
2023/10/08 02:26:58;;;;;;;0.00;0.00;;;17.10;99.90;;;;;;4975683;28;20027;-52
2023/10/08 02:29:29;;;;;;;0.00;0.00;;;17.10;99.90;;;;;;4979067;28;20050;-50
2023/10/08 02:31:56;;;;;;;0.00;0.00;;;17.00;99.90;;;;;;4990400;28;20101;-50
2023/10/08 02:34:22;;;;;;;0.00;0.00;;;17.20;99.90;;;;;;4975167;28;20050;-51
2023/10/08 02:36:47;;;;;;;0.00;0.00;;;17.20;99.90;;;;;;4976449;28;20589;-51
2023/10/08 02:39:21;;;;;;;0.00;0.00;;;17.10;99.90;;;;;;4974792;28;20041;-51
2023/10/08 02:41:47;;;;;;;;;;;17.20;99.90;;;;;;4976689;28;20042;-51
2023/10/08 02:44:14;;;;;;;0.00;0.00;;;17.00;99.90;;;;;;4977763;28;19917;-51
2023/10/08 02:46:47;;;;;;;0.00;0.00;;;17.20;99.90;;;;;;5002782;28;20037;-51
2023/10/08 02:49:16;;;;;;;;;;;17.20;99.90;;;;;;4985317;28;20030;-52
2023/10/08 02:51:44;;;;;;;0.00;0.00;;;17.10;99.90;;;;;;4976193;28;20648;-52
2023/10/08 02:54:17;;;;;;;0.00;0.00;;;16.90;99.90;;;;;;4972344;28;20035;-53
2023/10/08 02:56:47;;;;;;;;;;;17.10;99.90;;;;;;4978503;28;20057;-52
2023/10/08 02:59:13;;;;;;;0.00;0.00;;;17.20;99.90;;;;;;4973406;28;19972;-52
2023/10/08 03:01:40;;;;;;;0.00;0.00;;;17.20;99.90;;;;;;4975915;28;20422;-52
2023/10/08 03:04:17;;;;;;;0.00;0.00;;;17.10;99.90;;;;;;4975242;28;20039;-52
2023/10/08 03:06:43;;;;;;;0.00;0.00;;;17.10;99.90;;;;;;4975610;28;20396;-52
2023/10/08 03:09:08;;;;;;;0.00;0.00;;;17.10;99.90;;;;;;4974894;28;20038;-50
2023/10/08 03:11:37;;;;;;;0.00;0.00;;;17.20;99.90;;;;;;4959665;28;20329;-51
2023/10/08 03:14:03;;;;;;;0.00;0.00;;;17.10;99.90;;;;;;4975524;28;20062;-51
2023/10/08 03:16:33;;;;;;;0.00;0.00;;;17.20;99.90;;;;;;4990027;28;20034;-50
2023/10/08 03:19:01;;;;;;;0.00;0.00;;;17.10;99.90;;;;;;4976099;28;20034;-52
2023/10/08 03:24:17;;;;;;;0.00;0.00;;;16.90;99.90;;;;;;4975138;28;20038;-54
2023/10/08 03:26:45;;;;;;;0.00;0.00;;;17.00;99.90;;;;;;4975557;28;20049;-51
2023/10/08 03:29:17;;;;;;;0.00;0.00;;;16.90;99.90;;;;;;4976454;28;20062;-51
2023/10/08 03:34:15;;;;;;;0.00;0.00;;;16.90;99.90;;;;;;4974273;28;20410;-53
2023/10/08 03:36:44;;;;;;;0.00;0.00;;;16.80;99.90;;;;;;4975266;28;20199;-55
2023/10/08 03:39:13;;;;;;;0.00;0.00;;;16.80;99.90;;;;;;4973579;28;20261;-53
2023/10/08 03:41:42;;;;;;;0.00;0.00;;;17.00;99.90;;;;;;4975009;28;20556;-53
2023/10/08 03:44:16;;;;;;;0.00;0.00;;;17.00;99.90;;;;;;4973776;28;20034;-55
2023/10/08 03:46:42;;;;;;;0.00;0.00;;;16.90;99.90;;;;;;4974867;28;20053;-54
2023/10/08 03:49:24;;;;;;;0.00;0.00;;;16.80;99.90;;;;;;4969295;28;20303;-55
2023/10/08 03:51:51;;;;;;;0.00;0.00;;;16.90;99.90;;;;;;4961147;28;20446;-54
2023/10/08 03:54:47;;;;;;;0.00;0.00;;;17.10;99.90;;;;;;4973440;28;20030;-55
2023/10/08 03:57:04;;;;;;;0.00;0.00;;;16.90;99.90;;;;;;4972823;28;20337;-54
2023/10/08 03:59:34;;;;;;;0.00;0.00;;;16.60;99.90;;;;;;4974350;28;20562;-52
2023/10/08 04:02:13;;;;;;;0.00;0.00;;;16.60;99.90;;;;;;4973628;28;20037;-54
2023/10/08 04:04:51;;;;;;;0.00;0.00;;;16.70;99.90;;;;;;4980197;28;20506;-53
2023/10/08 04:12:34;;;;;;;0.00;0.00;;;16.70;99.90;;;;;;4987844;28;20041;-54
2023/10/08 04:15:07;;;;;;;0.00;0.00;;;16.80;99.90;;;;;;4974191;28;20077;-54
2023/10/08 04:17:43;;;;;;;0.00;0.00;;;16.90;99.90;;;;;;4978955;28;20496;-55
2023/10/08 04:20:30;;;;;;;0.00;0.00;;;16.80;99.90;;;;;;4973098;28;20040;-54
2023/10/08 04:22:59;;;;;;;0.00;0.00;;;16.80;99.90;;;;;;4973959;28;20967;-55
2023/10/08 04:25:31;;;;;;;0.00;0.00;;;16.80;99.90;;;;;;4973038;28;20038;-54
2023/10/08 04:27:59;;;;;;;0.00;0.00;;;16.70;99.90;;;;;;4973615;28;20031;-55
2023/10/08 04:30:34;;;;;;;0.00;0.00;;;16.60;99.90;;;;;;4976482;28;20045;-54
2023/10/08 04:33:07;;;;;;;0.00;0.00;;;16.60;99.90;;;;;;4977024;28;20034;-54
2023/10/08 04:35:37;;;;;;;0.00;0.00;;;16.70;99.90;;;;;;4978704;28;20449;-53
2023/10/08 04:38:08;;;;;;;0.00;0.00;;;16.70;99.90;;;;;;4972890;28;20034;-53
2023/10/08 04:40:41;;;;;;;0.00;0.00;;;16.60;99.90;;;;;;4973881;28;20030;-55
2023/10/08 04:43:10;;;;;;;0.00;0.00;;;16.60;99.90;;;;;;4972833;28;20065;-53
2023/10/08 04:45:37;;;;;;;0.00;0.00;;;16.70;99.90;;;;;;4973565;28;20038;-54
2023/10/08 04:48:09;;;;;;;0.00;0.00;;;16.80;99.90;;;;;;4972693;28;20058;-55
2023/10/08 04:50:36;;;;;;;0.00;0.00;;;16.80;99.90;;;;;;4977265;28;20042;-54
2023/10/08 04:53:07;;;;;;;0.00;0.00;;;16.70;99.90;;;;;;4972853;28;20046;-54
2023/10/08 04:55:41;;;;;;;0.00;0.00;;;16.80;99.90;;;;;;4973472;28;20050;-54
2023/10/08 04:58:19;;;;;;;0.00;0.00;;;16.70;99.90;;;;;;4971673;28;20645;-54
2023/10/08 05:00:53;;;;;;;0.00;0.00;;;16.80;99.90;;;;;;4973536;28;20038;-55
2023/10/08 05:03:22;;;;;;;0.00;0.00;;;16.60;99.90;;;;;;4970918;28;20120;-52
2023/10/08 05:06:39;;;;;;;0.00;0.00;;;16.60;99.90;;;;;;4973581;28;20293;-53
2023/10/08 05:08:58;;;;;;;0.00;0.00;;;16.50;99.90;;;;;;4978120;28;20548;-54
2023/10/08 05:11:25;;;;;;;;;;;;;;;;;;4972908;28;20104;-54
2023/10/08 05:14:05;;;;;;;0.00;0.00;;;16.20;99.90;;;;;;4973233;28;20198;-54
2023/10/08 05:17:00;;;;;;;0.00;0.00;;;16.20;99.90;;;;;;4979754;28;20085;-54
2023/10/08 05:22:43;;;;;;;0.00;0.00;;;16.30;99.90;;;;;;4951090;28;20886;-52
2023/10/08 05:25:08;;;;;;;0.00;0.00;;;16.10;99.90;;;;;;4971977;28;20421;-55
2023/10/08 05:27:49;;;;;;;0.00;0.00;;;15.90;99.90;;;;;;4972972;28;20526;-53
2023/10/08 05:30:28;;;;;;;0.00;0.00;;;16.00;99.90;;;;;;4983987;28;20077;-53
2023/10/08 05:43:55;;;;;;;0.00;0.00;;;16.40;99.90;;;;;;4975893;28;20042;-54
2023/10/08 05:49:01;;;;;;;0.00;0.00;;;16.30;99.90;;;;;;4976854;28;20034;-53
2023/10/08 05:54:35;;;;;;;0.00;0.00;;;16.50;99.90;;;;;;4976139;28;20171;-52
2023/10/08 06:07:48;;;;;;;0.00;0.00;;;16.30;99.90;;;;;;4960396;28;20396;-54
2023/10/08 06:16:05;;;;;;;0.00;0.00;;;16.30;99.90;;;;;;4980458;28;20096;-53
2023/10/08 06:18:32;;;;;;;0.00;0.00;;;16.30;99.90;;;;;;4983345;28;20030;-52
2023/10/08 06:21:01;;;;;;;0.00;0.00;;;16.40;99.90;;;;;;4977016;28;20049;-50
2023/10/08 06:23:34;;;;;;;0.00;0.00;;;16.10;99.90;;;;;;4975295;28;20030;-53
2023/10/08 06:26:05;;;;;;;0.00;0.00;;;16.10;99.90;;;;;;4976325;28;20457;-51
2023/10/08 06:28:34;;;;;;;0.00;0.00;;;16.20;99.90;;;;;;4975514;28;20030;-51
2023/10/08 06:31:01;;;;;;;0.00;0.00;;;16.20;99.90;;;;;;4996727;28;20049;-51
2023/10/08 06:33:33;;;;;;;0.00;0.00;;;16.20;99.90;;;;;;4981453;28;20110;-52
2023/10/08 06:36:02;;;;;;;0.00;0.00;;;16.20;99.90;;;;;;4975900;28;20641;-53
2023/10/08 06:38:41;;;;;;;0.00;0.00;;;16.10;99.90;;;;;;4983358;28;20092;-51
2023/10/08 06:43:49;;;;;;;0.00;0.00;;;16.10;99.90;;;;;;4961250;28;20035;-52
2023/10/08 06:46:22;;;;;;;0.00;0.00;;;16.20;99.90;;;;;;4991808;28;20053;-50
2023/10/08 06:48:49;;;;;;;0.00;0.00;;;16.40;99.90;;;;;;4975779;28;20116;-53
2023/10/08 06:51:17;;;;;;;0.00;0.00;;;16.50;99.90;;;;;;4974621;28;20330;-52
2023/10/08 06:53:47;;;;;;;0.00;0.00;;;16.50;99.90;;;;;;4975811;28;20533;-52
2023/10/08 06:56:16;;;;;;;0.00;0.00;;;16.50;99.90;;;;;;4975348;28;20030;-52
2023/10/08 06:58:49;;;;;;;0.00;0.00;;;16.40;99.90;;;;;;4977378;28;20252;-53
2023/10/08 07:01:24;;;;;;;0.00;0.00;;;16.10;99.90;;;;;;4972679;28;20125;-52
2023/10/08 07:04:03;;;;;;;0.00;0.00;;;15.80;99.90;;;;;;4975825;28;20093;-51
2023/10/08 07:06:31;;;;;;;0.00;0.00;;;15.90;99.90;;;;;;4982789;28;20053;-51
2023/10/08 07:08:59;;;;;;;0.00;0.00;;;15.80;99.90;;;;;;4975513;28;20034;-50
2023/10/08 07:11:26;;;;;;;0.00;0.00;;;16.00;99.90;;;;;;4974516;28;20038;-49
2023/10/08 07:13:52;;;;;;;0.00;0.00;;;16.10;99.90;;;;;;4975921;28;20120;-53
2023/10/08 07:16:20;;;;;;;0.00;0.00;;;16.10;99.90;;;;;;4974590;28;20109;-52
2023/10/08 07:18:55;;;;;;;0.00;0.00;;;16.10;99.90;;;;;;4975043;28;20056;-53
2023/10/08 07:21:38;;;;;;;0.00;0.00;;;16.10;99.90;;;;;;4974317;28;20554;-50
2023/10/08 07:24:09;;;;;;;;;;;16.00;99.90;;;;;;4974465;28;20204;-54
2023/10/08 07:26:38;;;;;;;0.00;0.00;;;16.10;99.90;;;;;;4975729;28;19913;-55
2023/10/08 07:29:07;;;;;;;0.00;0.00;;;16.10;99.90;;;;;;4973895;28;20299;-54
2023/10/08 07:31:35;;;;;;;0.00;0.00;;;16.10;99.90;;;;;;4975196;28;20098;-55
2023/10/08 07:34:18;;;;;;;0.00;0.00;;;16.00;99.90;;;;;;4975180;28;20026;-54
2023/10/08 07:36:51;;;;;;;0.00;0.00;;;16.00;99.90;;;;;;4974838;28;20027;-54
2023/10/08 07:39:35;;;;;;;;;;;15.80;99.90;;;;;;4972689;28;20221;-54
2023/10/08 07:42:05;;;;;;;0.00;0.00;;;15.50;99.90;;;;;;4974493;28;19968;-53
2023/10/08 07:44:31;;;;;;;0.00;0.00;;;15.80;99.90;;;;;;4981612;28;20052;-54
2023/10/08 07:46:57;;;;;;;0.00;0.00;;;15.90;99.90;;;;;;4998149;28;20037;-54
2023/10/08 07:49:29;;;;;;;0.00;0.00;;;15.90;99.90;;;;;;4980524;28;20550;-53
2023/10/08 07:51:58;;;;;;;0.00;0.00;;;16.00;99.90;;;;;;4973409;28;20252;-54
2023/10/08 07:54:27;;;;;;;0.00;0.00;;;16.10;99.90;;;;;;4972455;28;20503;-55
2023/10/08 07:57:08;;;;;;;0.00;0.00;;;16.00;99.90;;;;;;4973422;28;20041;-54
2023/10/08 07:59:38;;;;;;;0.00;0.00;;;16.10;99.90;;;;;;4979874;28;20588;-53
2023/10/08 08:02:09;;;;;;;0.00;0.00;;;16.30;99.90;;;;;;4971389;28;20069;-55
2023/10/08 08:04:36;;;;;;;0.00;0.00;;;16.30;99.90;;;;;;4973040;28;20113;-54
2023/10/08 08:07:04;;;;;;;0.00;0.00;;;16.40;99.90;;;;;;4972408;28;20042;-54
2023/10/08 08:09:30;;;;;;;0.00;0.00;;;16.30;99.90;;;;;;4973104;28;20046;-51
2023/10/08 08:11:57;;;;;;;0.00;0.00;;;16.30;99.90;;;;;;4973357;28;20238;-51
2023/10/08 08:14:24;;;;;;;0.00;0.00;;;16.50;99.90;;;;;;4971738;28;20073;-53
2023/10/08 08:16:51;;;;;;;0.00;0.00;;;16.50;99.90;;;;;;4973041;28;20545;-53
2023/10/08 08:19:17;;;;;;;0.00;0.00;;;16.40;99.90;;;;;;4971976;28;20031;-54
2023/10/08 08:21:46;;;;;;;0.00;0.00;;;16.40;99.90;;;;;;4973133;28;20683;-53
2023/10/08 08:24:28;;;;;;;0.00;0.00;;;16.40;99.90;;;;;;4971512;28;20030;-53
2023/10/08 08:27:11;;;;;;;0.00;0.00;;;16.50;99.90;;;;;;4972742;28;20093;-54
2023/10/08 08:29:48;;;;;;;0.00;0.00;;;16.50;99.90;;;;;;4964228;28;20553;-53
2023/10/08 08:32:15;;;;;;;0.00;0.00;;;16.60;99.90;;;;;;4971956;28;20777;-52
2023/10/08 08:34:44;;;;;;;0.00;0.00;;;16.50;99.90;;;;;;4972732;28;20042;-52
2023/10/08 08:37:12;;;;;;;0.00;0.00;;;16.70;99.90;;;;;;4973336;28;20742;-52
2023/10/08 08:39:38;;;;;;;0.00;0.00;;;16.60;99.90;;;;;;4973761;28;20757;-50
2023/10/08 08:42:05;;;;;;;0.00;0.00;;;16.70;99.90;;;;;;4973287;28;20042;-49
2023/10/08 08:44:50;;;;;;;0.00;0.00;;;16.70;99.90;;;;;;4981489;28;20045;-52
2023/10/08 08:47:18;;;;;;;0.00;0.00;;;16.60;99.90;;;;;;4993280;28;20457;-49
2023/10/08 08:49:48;;;;;;;0.00;0.00;;;16.50;99.90;;;;;;4973956;28;20038;-52
2023/10/08 08:52:14;;;;;;;0.00;0.00;;;16.60;99.90;;;;;;4973121;28;20060;-51
2023/10/08 08:54:42;;;;;;;0.00;0.00;;;16.70;99.90;;;;;;4973702;28;20046;-53
2023/10/08 08:57:13;;;;;;;0.00;0.00;;;16.60;99.90;;;;;;4973561;28;20036;-51
2023/10/08 08:59:44;;;;;;;0.00;0.00;;;16.60;99.90;;;;;;4973805;28;20326;-50
2023/10/08 09:02:14;;;;;;;0.00;0.00;;;16.70;99.90;;;;;;4971912;28;20038;-51
2023/10/08 09:04:39;;;;;;;0.00;0.00;;;16.90;99.90;;;;;;4972109;28;20640;-52
2023/10/08 09:07:05;;;;;;;0.00;0.00;;;17.10;99.90;;;;;;4972257;28;20023;-54
2023/10/08 09:09:32;;;;;;;0.00;0.00;;;17.20;99.90;;;;;;4972697;28;20049;-54
2023/10/08 09:11:59;;;;;;;0.00;0.00;;;17.20;99.90;;;;;;4973216;28;20117;-54
2023/10/08 09:14:25;;;;;;;0.00;0.00;;;17.30;99.90;;;;;;4972283;28;20038;-52
2023/10/08 09:16:54;;;;;;;0.00;0.00;;;17.20;99.90;;;;;;4971219;28;20138;-53
2023/10/08 09:19:22;;;;;;;0.00;0.00;;;17.40;99.90;;;;;;4971622;28;20232;-53
2023/10/08 09:22:02;;;;;;;0.00;0.00;;;17.30;99.90;;;;;;4973597;28;20053;-54
2023/10/08 09:24:28;;;;;;;0.00;0.00;;;17.30;99.90;;;;;;4980219;28;20034;-54
2023/10/08 09:26:55;;;;;;;0.00;0.00;;;17.30;99.90;;;;;;4973122;28;20053;-53
2023/10/08 09:29:23;;;;;;;0.00;0.00;;;17.40;99.90;;;;;;4971023;28;20042;-52
2023/10/08 09:31:56;;;;;;;0.00;0.00;;;17.30;99.90;;;;;;4973186;28;20136;-53
2023/10/08 09:34:31;;;;;;;0.00;0.00;;;17.40;99.90;;;;;;4971181;28;20050;-53
2023/10/08 09:37:01;;;;;;;0.00;0.00;;;17.40;99.90;;;;;;4972893;28;20027;-54
2023/10/08 09:39:33;;;;;;;0.00;0.00;;;17.30;99.90;;;;;;4979758;28;20127;-51
2023/10/08 09:42:02;;;;;;;0.00;0.00;;;17.60;99.90;;;;;;4972496;28;20030;-52
2023/10/08 09:44:29;;;;;;;0.00;0.00;;;17.60;99.90;;;;;;4979668;28;20481;-55
2023/10/08 09:47:10;;;;;;;0.00;0.00;;;17.50;99.90;;;;;;4997618;28;20710;-54
2023/10/08 09:49:43;;;;;;;0.00;0.00;;;17.50;99.90;;;;;;4966086;28;20076;-51
2023/10/08 09:52:10;;;;;;;0.00;0.00;;;17.50;99.90;;;;;;4977020;28;21126;-54
2023/10/08 09:55:10;;;;;;;0.00;0.00;;;17.60;99.90;;;;;;4982950;28;20034;-50
2023/10/08 09:57:36;;;;;;;0.00;0.00;;;17.70;99.90;;;;;;4941431;28;20074;-53
2023/10/08 10:00:06;;;;;;;0.00;0.00;;;17.70;99.90;;;;;;4971153;28;20093;-53
2023/10/08 10:02:32;;;;;;;0.00;0.00;;;17.70;99.90;;;;;;4971851;28;20054;-49
2023/10/08 10:05:00;;;;;;;0.00;0.00;;;17.70;99.90;;;;;;4970493;28;20053;-54
2023/10/08 10:07:28;;;;;;;0.00;0.00;;;17.70;99.90;;;;;;4971045;28;20034;-53
2023/10/08 10:09:54;;;;;;;0.00;0.00;;;17.80;99.90;;;;;;4976120;28;20046;-55
2023/10/08 10:12:25;;;;;;;0.00;0.00;;;17.80;99.90;;;;;;4971014;28;20503;-52
2023/10/08 10:14:56;;;;;;;0.00;0.00;;;17.50;99.90;;;;;;4971572;28;20034;-51
2023/10/08 10:17:25;;;;;;;0.00;0.00;;;17.30;99.90;;;;;;4970704;28;20048;-55
2023/10/08 10:20:01;;;;;;;0.00;0.00;;;17.30;99.90;;;;;;4972265;28;20286;-53
2023/10/08 10:22:35;;;;;;;0.00;0.00;;;17.40;99.90;;;;;;4979016;28;20061;-55
2023/10/08 10:25:14;;;;;;;0.00;0.00;;;17.30;99.90;;;;;;4972697;28;20374;-54
2023/10/08 10:28:00;;;;;;;0.00;0.00;;;17.30;99.90;;;;;;4973403;28;20426;-56
2023/10/08 10:30:27;;;;;;;0.00;0.00;;;17.40;99.90;;;;;;4966243;28;20521;-52
2023/10/08 10:32:54;;;;;;;0.00;0.00;;;17.40;99.90;;;;;;4978516;28;20813;-54
2023/10/08 10:35:20;;;;;;;0.00;0.00;;;17.50;99.90;;;;;;4972660;28;20038;-51
2023/10/08 10:37:52;;;;;;;0.00;0.00;;;17.30;99.90;;;;;;4974840;28;20743;-54
2023/10/08 10:40:40;;;;;;;0.00;0.00;;;17.50;99.90;;;;;;4973896;28;20038;-53
2023/10/08 10:43:07;;;;;;;0.00;0.00;;;17.20;99.90;;;;;;4973391;28;20042;-50
2023/10/08 10:45:36;;;;;;;0.00;0.00;;;17.20;99.90;;;;;;4987430;28;20632;-54
2023/10/08 10:48:14;;;;;;;0.00;0.00;;;17.00;99.90;;;;;;4976951;28;20034;-54
2023/10/08 10:53:27;;;;;;;0.00;0.00;;;17.40;99.90;;;;;;4973001;28;20045;-55
2023/10/08 10:56:03;;;;;;;0.00;0.00;;;17.40;99.90;;;;;;4973170;28;20077;-53
2023/10/08 10:58:38;;;;;;;0.00;0.00;;;17.30;99.90;;;;;;4997085;28;20275;-57
2023/10/08 11:01:21;;;;;;;0.00;0.00;;;17.10;99.90;;;;;;4984942;28;20030;-56
2023/10/08 11:03:51;;;;;;;0.00;0.00;;;17.00;99.90;;;;;;4960274;28;20041;-55
2023/10/08 11:06:23;;;;;;;0.00;0.00;;;16.90;99.90;;;;;;4974656;28;20501;-56
2023/10/08 11:08:50;;;;;;;0.00;0.00;;;16.90;99.90;;;;;;4975608;28;20039;-54
2023/10/08 11:11:17;;;;;;;0.00;0.00;;;17.00;99.90;;;;;;4974260;28;20743;-54
2023/10/08 11:13:47;;;;;;;0.00;0.00;;;17.00;99.90;;;;;;4975160;28;20449;-54
2023/10/08 11:16:15;;;;;;;0.00;0.00;;;17.30;99.90;;;;;;4973995;28;20031;-54
2023/10/08 11:18:50;;;;;;;0.00;0.00;;;17.40;99.90;;;;;;4975590;28;20369;-54
2023/10/08 11:21:17;;;;;;;0.00;0.00;;;17.50;99.90;;;;;;4973549;28;20035;-54
2023/10/08 11:23:52;;;;;;;0.00;0.00;;;17.40;99.90;;;;;;4975215;28;20034;-54
2023/10/08 11:26:19;;;;;;;0.00;0.00;;;17.20;99.90;;;;;;4974060;28;20045;-52
2023/10/08 11:28:47;;;;;;;0.00;0.00;;;17.10;99.90;;;;;;4975280;28;20742;-52
2023/10/08 11:31:19;;;;;;;0.00;0.00;;;17.50;99.90;;;;;;4972436;28;20042;-50
2023/10/08 11:33:54;;;;;;;0.00;0.00;;;17.10;99.90;;;;;;4975172;28;20472;-50
2023/10/08 11:36:27;;;;;;;0.00;0.00;;;17.00;99.90;;;;;;4972695;28;20133;-55
2023/10/08 11:39:00;;;;;;;0.00;0.00;;;17.00;99.90;;;;;;4974780;28;20150;-55
2023/10/08 11:41:27;;;;;;;0.00;0.00;;;17.20;99.90;;;;;;4973601;28;20064;-55
2023/10/08 11:43:56;;;;;;;0.00;0.00;;;17.30;99.90;;;;;;4973030;28;20125;-53
2023/10/08 11:46:27;;;;;;;0.00;0.00;;;17.30;99.90;;;;;;4993403;28;20204;-54
2023/10/08 11:48:58;;;;;;;0.00;0.00;;;17.30;99.90;;;;;;4974460;28;20375;-54
2023/10/08 11:51:24;;;;;;;0.00;0.00;;;17.20;99.90;;;;;;4973364;28;20332;-53
2023/10/08 11:53:51;;;;;;;0.00;0.00;;;17.40;99.90;;;;;;4972568;28;20526;-54
2023/10/08 11:56:21;;;;;;;0.00;0.00;;;17.50;99.90;;;;;;4973374;28;20103;-54
2023/10/08 11:58:47;;;;;;;0.00;0.00;;;17.50;99.90;;;;;;4974607;28;20588;-53
2023/10/08 12:01:18;;;;;;;0.00;0.00;;;17.30;99.90;;;;;;4973183;28;20042;-53
2023/10/08 12:03:45;;;;;;;0.00;0.00;;;17.30;99.90;;;;;;4974339;28;20053;-54
2023/10/08 12:06:15;;;;;;;0.00;0.00;;;17.60;99.90;;;;;;4973425;28;20040;-54
2023/10/08 12:08:42;;;;;;;0.00;0.00;;;17.50;99.90;;;;;;4974752;28;20137;-52
2023/10/08 12:11:11;;;;;;;0.00;0.00;;;17.40;99.90;;;;;;4973023;28;20592;-54
2023/10/08 12:13:38;;;;;;;0.00;0.00;;;17.40;99.90;;;;;;4958434;28;20030;-55
2023/10/08 12:16:07;;;;;;;0.00;0.00;;;17.70;99.90;;;;;;4972635;28;20030;-53
2023/10/08 12:18:39;;;;;;;0.00;0.00;;;17.90;99.90;;;;;;4972223;28;20049;-53
2023/10/08 12:21:10;;;;;;;0.00;0.00;;;17.40;99.90;;;;;;4972695;28;20650;-55
2023/10/08 12:23:37;;;;;;;0.00;0.00;;;17.40;99.90;;;;;;4958085;28;20038;-53
2023/10/08 12:26:03;;;;;;;0.00;0.00;;;17.70;99.90;;;;;;4972727;28;20714;-52
2023/10/08 12:28:29;;;;;;;0.00;0.00;;;18.00;99.90;;;;;;4973511;28;20027;-56
2023/10/08 12:31:00;;;;;;;0.00;0.00;;;17.90;99.90;;;;;;4994064;28;20046;-55
2023/10/08 12:33:26;;;;;;;0.00;0.00;;;17.60;99.90;;;;;;4972960;28;20073;-55
2023/10/08 12:35:58;;;;;;;0.00;0.00;;;17.90;99.90;;;;;;4974143;28;20038;-54
2023/10/08 12:38:27;;;;;;;0.00;0.00;;;17.70;99.90;;;;;;4972645;28;20030;-53
2023/10/08 12:40:54;;;;;;;0.00;0.00;;;17.60;99.90;;;;;;4971968;28;20034;-53
2023/10/08 12:43:21;;;;;;;0.00;0.00;;;17.60;99.90;;;;;;4973053;28;20049;-56
2023/10/08 12:45:52;;;;;;;0.00;0.00;;;17.30;99.90;;;;;;4995556;28;20748;-57
2023/10/08 12:48:22;;;;;;;0.00;0.00;;;17.20;99.90;;;;;;4973642;28;20033;-56
2023/10/08 12:50:56;;;;;;;0.00;0.00;;;17.30;99.90;;;;;;4974132;28;20038;-55
2023/10/08 12:53:33;;;;;;;0.00;0.00;;;17.20;99.90;;;;;;4971845;28;20046;-55
2023/10/08 12:56:05;;;;;;;0.00;0.00;;;17.20;99.90;;;;;;4972617;28;20045;-56
2023/10/08 12:58:31;;;;;;;0.00;0.00;;;17.50;99.90;;;;;;4978551;28;20437;-55
2023/10/08 13:00:58;;;;;;;0.00;0.00;;;17.40;99.90;;;;;;4979657;28;20542;-56
2023/10/08 13:03:30;;;;;;;0.00;0.00;;;17.40;99.90;;;;;;4970117;28;20118;-53
2023/10/08 13:06:03;;;;;;;0.00;0.00;;;17.20;99.90;;;;;;4971956;28;20205;-55
2023/10/08 13:08:35;;;;;;;0.00;0.00;;;17.40;99.90;;;;;;4986773;28;20031;-55
2023/10/08 13:11:01;;;;;;;0.00;0.00;;;17.50;99.90;;;;;;4971870;28;20726;-53
2023/10/08 13:13:33;;;;;;;0.00;0.00;;;17.30;99.90;;;;;;4971805;28;20263;-55
2023/10/08 13:16:03;;;;;;;0.00;0.00;;;17.20;99.90;;;;;;4969960;28;20125;-54
2023/10/08 13:18:30;;;;;;;0.00;0.00;;;17.40;99.90;;;;;;4978701;28;20046;-55
2023/10/08 13:20:57;;;;;;;0.00;0.00;;;17.40;99.90;;;;;;4972189;28;20671;-56
2023/10/08 13:23:23;;;;;;;0.00;0.00;;;17.50;99.90;;;;;;4969474;28;20042;-54
2023/10/08 13:25:58;;;;;;;0.00;0.00;;;17.70;99.90;;;;;;4971830;28;20042;-55
2023/10/08 13:28:26;;;;;;;0.00;0.00;;;17.70;99.90;;;;;;4970517;28;20088;-54
2023/10/08 13:30:52;;;;;;;0.00;0.00;;;17.50;99.90;;;;;;4994124;28;20803;-54
2023/10/08 13:33:20;;;;;;;0.00;0.00;;;17.40;99.90;;;;;;4970851;28;20129;-53
2023/10/08 13:35:49;;;;;;;0.00;0.00;;;17.70;99.90;;;;;;4972965;28;20588;-54
2023/10/08 13:38:16;;;;;;;0.00;0.00;;;17.60;99.90;;;;;;4969748;28;20030;-53
2023/10/08 13:41:01;;;;;;;0.00;0.00;;;17.70;99.90;;;;;;4971308;28;20038;-54
2023/10/08 13:43:33;;;;;;;0.00;0.00;;;18.00;99.90;;;;;;4979130;28;20046;-55
2023/10/08 13:46:03;;;;;;;0.00;0.00;;;18.00;99.90;;;;;;4972799;28;20034;-54
2023/10/08 13:48:33;;;;;;;0.00;0.00;;;18.00;99.90;;;;;;4979446;28;20050;-56
2023/10/08 13:51:01;;;;;;;0.00;0.00;;;17.80;99.90;;;;;;4972534;28;20042;-56
2023/10/08 13:53:29;;;;;;;0.00;0.00;;;18.10;99.90;;;;;;4991555;28;20438;-55
2023/10/08 13:56:02;;;;;;;0.00;0.00;;;18.10;99.90;;;;;;4992033;28;20329;-53
2023/10/08 13:58:29;;;;;;;0.00;0.00;;;18.20;99.90;;;;;;4980178;28;20096;-51
2023/10/08 14:00:56;;;;;;;0.00;0.00;;;18.20;99.90;;;;;;4973495;28;20054;-54
2023/10/08 14:03:22;;;;;;;0.00;0.00;;;18.10;99.90;;;;;;4975276;28;20312;-55
2023/10/08 14:05:50;;;;;;;0.00;0.00;;;18.20;99.90;;;;;;4974877;28;20069;-52
2023/10/08 14:08:18;;;;;;;0.00;0.00;;;18.30;99.90;;;;;;4975652;28;20357;-54
2023/10/08 14:10:44;;;;;;;0.00;0.00;;;17.90;99.90;;;;;;4976572;28;20038;-51
2023/10/08 14:13:10;;;;;;;0.00;0.00;;;18.00;99.90;;;;;;4974832;28;20038;-53
2023/10/08 14:15:43;;;;;;;0.00;0.00;;;18.00;99.90;;;;;;4976501;28;20048;-53